Home > Products > Valid Products > TAF

000
FTUS45 KPUB 192323
TAFCOS
TAF
KCOS 192323Z 2000/2024 16007KT P6SM FEW050
     FM200200 VRB04KT P6SM SCT200
     FM201900 13006KT P6SM SCT200=



000
FTUS45 KPUB 192323
TAFPUB
TAF
KPUB 192323Z 2000/2024 12007KT P6SM FEW060
     FM200200 VRB04KT P6SM SCT200
     FM201900 12006KT P6SM SCT200=



000
FTUS45 KPUB 192323
TAFPUB
TAF
KPUB 192323Z 2000/2024 12007KT P6SM FEW060
     FM200200 VRB04KT P6SM SCT200
     FM201900 12006KT P6SM SCT200=



000
FTUS45 KPUB 192323
TAFCOS
TAF
KCOS 192323Z 2000/2024 16007KT P6SM FEW050
     FM200200 VRB04KT P6SM SCT200
     FM201900 13006KT P6SM SCT200=



000
FTUS45 KPUB 192323
TAFALS
TAF
KALS 192323Z 2000/2024 VRB03KT P6SM SCT200
     FM201100 VRB03KT 2SM BR FEW002
      TEMPO 2012/2016 1/2SM FZFG BKN001
     FM201600 VRB05KT P6SM SCT200=



000
FTUS45 KPUB 192323
TAFALS
TAF
KALS 192323Z 2000/2024 VRB03KT P6SM SCT200
     FM201100 VRB03KT 2SM BR FEW002
      TEMPO 2012/2016 1/2SM FZFG BKN001
     FM201600 VRB05KT P6SM SCT200=



000
FTUS45 KPUB 191730 CCA
TAFALS
TAF COR
KALS 191730Z 1918/2018 VRB05KT P6SM FEW130
     FM200300 VRB03KT P6SM SCT200
     FM201100 VRB03KT 2SM BR FEW002
      TEMPO 2012/2016 1/2SM FZFG BKN001
     FM201600 VRB05KT P6SM SCT200=



000
FTUS45 KPUB 191730 CCA
TAFALS
TAF COR
KALS 191730Z 1918/2018 VRB05KT P6SM FEW130
     FM200300 VRB03KT P6SM SCT200
     FM201100 VRB03KT 2SM BR FEW002
      TEMPO 2012/2016 1/2SM FZFG BKN001
     FM201600 VRB05KT P6SM SCT200=



000
FTUS45 KPUB 191725
TAFPUB
TAF
KPUB 191725Z 1918/2018 30007KT P6SM FEW150
     FM191900 12007KT P6SM FEW150
     FM200200 VRB04KT P6SM SCT200=



000
FTUS45 KPUB 191725
TAFALS
TAF
KALS 191725Z 1918/2018 VRB05KT P6SM FEW130
     FM200300 VRB03KT P6SM SCT200=



000
FTUS45 KPUB 191725
TAFCOS
TAF
KCOS 191725Z 1918/2018 34006KT P6SM FEW120
     FM191900 16007KT P6SM FEW130
     FM200200 VRB04KT P6SM SCT200=



000
FTUS45 KPUB 191448 AAC
TAFALS
TAF AMD
KALS 191448Z 1915/2012 VRB03KT P6SM SCT005
      TEMPO 1915/1916 1/2SM FZFG VV001
     FM191700 VRB03KT P6SM FEW130
     FM200300 VRB03KT P6SM SCT200=



000
FTUS45 KPUB 191448 AAC
TAFALS
TAF AMD
KALS 191448Z 1915/2012 VRB03KT P6SM SCT005
      TEMPO 1915/1916 1/2SM FZFG VV001
     FM191700 VRB03KT P6SM FEW130
     FM200300 VRB03KT P6SM SCT200=



000
FTUS45 KPUB 191402 AAB
TAFALS
TAF AMD
KALS 191402Z 1914/2012 VRB03KT P6SM SCT005
      TEMPO 1914/1915 1SM BR
     FM191600 VRB03KT P6SM FEW130
     FM200300 VRB03KT P6SM SCT200=



000
FTUS45 KPUB 191248 AAA
TAFALS
TAF AMD
KALS 191248Z 1913/2012 VRB03KT 1SM BR BKN002
      TEMPO 1913/1915 1/2SM FZFG VV001
     FM191600 VRB03KT P6SM SCT020
     FM191900 VRB05KT P6SM FEW130
     FM200300 VRB03KT P6SM SCT200=



000
FTUS45 KPUB 191248 AAA
TAFALS
TAF AMD
KALS 191248Z 1913/2012 VRB03KT 1SM BR BKN002
      TEMPO 1913/1915 1/2SM FZFG VV001
     FM191600 VRB03KT P6SM SCT020
     FM191900 VRB05KT P6SM FEW130
     FM200300 VRB03KT P6SM SCT200=



000
FTUS45 KPUB 191155 CCA
TAFALS
TAF COR
KALS 191155Z 1912/2012 VRB03KT 4SM BR BKN002
      TEMPO 1912/1914 1SM BR BKN001
     FM191600 VRB03KT P6SM SCT020
     FM191900 VRB05KT P6SM FEW130
     FM200300 VRB03KT P6SM SCT200=



000
FTUS45 KPUB 191155 CCA
TAFALS
TAF COR
KALS 191155Z 1912/2012 VRB03KT 4SM BR BKN002
      TEMPO 1912/1914 1SM BR BKN001
     FM191600 VRB03KT P6SM SCT020
     FM191900 VRB05KT P6SM FEW130
     FM200300 VRB03KT P6SM SCT200=



000
FTUS45 KPUB 191138
TAFCOS
TAF
KCOS 191138Z 1912/2012 VRB04KT P6SM SCT015
      TEMPO 1912/1915 5SM BR BKN015
     FM191600 16007KT P6SM FEW130
     FM200200 VRB04KT P6SM SCT200=



000
FTUS45 KPUB 191138
TAFPUB
TAF
KPUB 191138Z 1912/2012 VRB04KT P6SM SCT040
     FM191900 13007KT P6SM FEW150
     FM200200 VRB04KT P6SM SCT200=



000
FTUS45 KPUB 191138
TAFALS
TAF
KALS 191138Z 1912/2012 VRB03KT 2SM BR BKN002
      TEMPO 1912/1914 1/2SM FZFG VV001
     FM191600 VRB03KT P6SM SCT020
     FM191900 VRB05KT P6SM FEW130
     FM200300 VRB03KT P6SM SCT200=



000
FTUS45 KPUB 191138
TAFCOS
TAF
KCOS 191138Z 1912/2012 VRB04KT P6SM SCT015
      TEMPO 1912/1915 5SM BR BKN015
     FM191600 16007KT P6SM FEW130
     FM200200 VRB04KT P6SM SCT200=



000
FTUS45 KPUB 191138
TAFALS
TAF
KALS 191138Z 1912/2012 VRB03KT 2SM BR BKN002
      TEMPO 1912/1914 1/2SM FZFG VV001
     FM191600 VRB03KT P6SM SCT020
     FM191900 VRB05KT P6SM FEW130
     FM200300 VRB03KT P6SM SCT200=



000
FTUS45 KPUB 191138
TAFPUB
TAF
KPUB 191138Z 1912/2012 VRB04KT P6SM SCT040
     FM191900 13007KT P6SM FEW150
     FM200200 VRB04KT P6SM SCT200=



000
FTUS45 KPUB 191011 AAB
TAFPUB
TAF AMD
KPUB 191011Z 1910/2006 VRB04KT P6SM SCT035
      TEMPO 1911/1914 BKN025
     FM191600 30005KT P6SM FEW150
     FM192000 15006KT P6SM FEW150=



000
FTUS45 KPUB 191011 AAB
TAFPUB
TAF AMD
KPUB 191011Z 1910/2006 VRB04KT P6SM SCT035
      TEMPO 1911/1914 BKN025
     FM191600 30005KT P6SM FEW150
     FM192000 15006KT P6SM FEW150=



000
FTUS45 KPUB 191011 AAB
TAFPUB
TAF AMD
KPUB 191011Z 1910/2006 VRB04KT P6SM SCT035
      TEMPO 1911/1914 BKN025
     FM191600 30005KT P6SM FEW150
     FM192000 15006KT P6SM FEW150=



000
FTUS45 KPUB 191011 AAB
TAFPUB
TAF AMD
KPUB 191011Z 1910/2006 VRB04KT P6SM SCT035
      TEMPO 1911/1914 BKN025
     FM191600 30005KT P6SM FEW150
     FM192000 15006KT P6SM FEW150=



000
FTUS45 KPUB 191010 AAA
TAFCOS
TAF AMD
KCOS 191010Z 1910/2006 VRB04KT P6SM OVC015
     FM191600 35004KT P6SM FEW025 SCT035
     FM191800 15007KT P6SM FEW100=



000
FTUS45 KPUB 191010 AAA
TAFCOS
TAF AMD
KCOS 191010Z 1910/2006 VRB04KT P6SM OVC015
     FM191600 35004KT P6SM FEW025 SCT035
     FM191800 15007KT P6SM FEW100=



000
FTUS45 KPUB 191010 AAA
TAFCOS
TAF AMD
KCOS 191010Z 1910/2006 VRB04KT P6SM OVC015
     FM191600 35004KT P6SM FEW025 SCT035
     FM191800 15007KT P6SM FEW100=



000
FTUS45 KPUB 191010 AAA
TAFCOS
TAF AMD
KCOS 191010Z 1910/2006 VRB04KT P6SM OVC015
     FM191600 35004KT P6SM FEW025 SCT035
     FM191800 15007KT P6SM FEW100=



000
FTUS45 KPUB 190854 AAA
TAFALS
TAF AMD
KALS 190854Z 1909/2006 VRB03KT 1/4SM FZFG VV001
     FM191500 VRB03KT P6SM SCT010 SCT050
     FM191800 VRB05KT P6SM SCT150=



000
FTUS45 KPUB 190854 AAA
TAFALS
TAF AMD
KALS 190854Z 1909/2006 VRB03KT 1/4SM FZFG VV001
     FM191500 VRB03KT P6SM SCT010 SCT050
     FM191800 VRB05KT P6SM SCT150=



000
FTUS45 KPUB 190520
TAFALS
TAF
KALS 190520Z 1906/2006 09004KT P6SM OVC050
     FM190900 VRB03KT 3SM BR BKN010
      TEMPO 1911/1915 1/4SM FZFG VV001
     FM191800 VRB05KT P6SM SCT150=



000
FTUS45 KPUB 190520
TAFCOS
TAF
KCOS 190520Z 1906/2006 07005KT P6SM -SN FEW020 SCT025 OVC040
      TEMPO 1906/1907 5SM -SHSN BKN020
     FM190700 02004KT P6SM FEW010 SCT025 BKN035
     FM191600 35004KT P6SM FEW025 SCT035
     FM191800 15007KT P6SM FEW100=



000
FTUS45 KPUB 190520
TAFPUB
TAF
KPUB 190520Z 1906/2006 35006KT P6SM VCSH SCT060 BKN090
      TEMPO 1906/1908 5SM -SHSN BKN040
     FM191000 VRB03KT 3SM BR SCT010
     FM191600 30005KT P6SM FEW150
     FM192000 15006KT P6SM FEW150=



000
FTUS45 KPUB 190520
TAFCOS
TAF
KCOS 190520Z 1906/2006 07005KT P6SM -SN FEW020 SCT025 OVC040
      TEMPO 1906/1907 3SM -SN BKN020
     FM190700 02004KT P6SM FEW010 SCT025 BKN035
     FM191600 35004KT P6SM FEW025 SCT035
     FM191800 15007KT P6SM FEW100=



000
FTUS45 KPUB 190520
TAFALS
TAF
KALS 190520Z 1906/2006 09004KT P6SM OVC050
     FM190900 VRB03KT 3SM BR BKN010
      TEMPO 1911/1915 1/4SM FZFG VV001
     FM191800 VRB05KT P6SM SCT150=



000
FTUS45 KPUB 190520
TAFPUB
TAF
KPUB 190520Z 1906/2006 35006KT P6SM VCSH SCT060 BKN090
      TEMPO 1906/1908 5SM -SHSN BKN040
     FM191000 VRB03KT 3SM BR SCT010
     FM191600 30005KT P6SM FEW150
     FM192000 15006KT P6SM FEW150=



000
FTUS45 KPUB 182333
TAFALS
TAF
KALS 182333Z 1900/1924 VRB03KT P6SM SCT020
     FM190100 VRB03KT P6SM SCT040 BKN100
     FM190800 VRB03KT 3SM BR BKN010
      TEMPO 1910/1914 1/4SM FZFG VV001
     FM191800 VRB05KT P6SM SCT150=



000
FTUS45 KPUB 182333
TAFPUB
TAF
KPUB 182333Z 1900/1924 11012KT P6SM SCT050 BKN100
     FM190300 VRB03KT P6SM FEW050 SCT100
     FM191000 VRB03KT 3SM BR SCT010
     FM191600 30005KT P6SM FEW150
     FM192000 15006KT P6SM FEW150=



000
FTUS45 KPUB 182333
TAFCOS
TAF
KCOS 182333Z 1900/1924 15007KT P6SM VCSH SCT025 BKN035
     FM190300 09004KT 3SM BR BKN010
     FM190700 02004KT P6SM FEW010 SCT025 BKN035
     FM191600 35004KT P6SM FEW025 SCT035
     FM191800 15007KT P6SM FEW100=



000
FTUS45 KPUB 182333
TAFPUB
TAF
KPUB 182333Z 1900/1924 11012KT P6SM SCT050 BKN100
     FM190300 VRB03KT P6SM FEW050 SCT100
     FM191000 VRB03KT 3SM BR SCT010
     FM191600 30005KT P6SM FEW150
     FM192000 15006KT P6SM FEW150=



000
FTUS45 KPUB 182333
TAFCOS
TAF
KCOS 182333Z 1900/1924 15007KT P6SM VCSH SCT025 BKN035
     FM190300 09004KT 3SM BR BKN010
     FM190700 02004KT P6SM FEW010 SCT025 BKN035
     FM191600 35004KT P6SM FEW025 SCT035
     FM191800 15007KT P6SM FEW100=



000
FTUS45 KPUB 182333
TAFALS
TAF
KALS 182333Z 1900/1924 VRB03KT P6SM SCT020
     FM190100 VRB03KT P6SM SCT040 BKN100
     FM190800 VRB03KT 3SM BR BKN010
      TEMPO 1910/1914 1/4SM FZFG VV001
     FM191800 VRB05KT P6SM SCT150=



000
FTUS45 KPUB 182117 AAA
TAFALS
TAF AMD
KALS 182117Z 1821/1918 VRB05KT P6SM OVC022
     FM190100 VRB04KT P6SM SCT040 BKN100
     FM190800 VRB04KT 3SM BR BKN010=



000
FTUS45 KPUB 182117 AAA
TAFALS
TAF AMD
KALS 182117Z 1821/1918 VRB05KT P6SM OVC022
     FM190100 VRB04KT P6SM SCT040 BKN100
     FM190800 VRB04KT 3SM BR BKN010=



000
FTUS45 KPUB 181720
TAFPUB
TAF
KPUB 181720Z 1818/1918 27005KT P6SM FEW070
     FM182000 10006KT P6SM FEW070 SCT120
     FM190300 VRB05KT P6SM FEW120
     FM191000 VRB04KT 3SM BR SCT010
     FM191600 30005KT P6SM FEW150=



000
FTUS45 KPUB 181720
TAFALS
TAF
KALS 181720Z 1818/1918 25005KT P6SM OVC021
     FM182000 21005KT P6SM FEW070 SCT150
     FM190100 VRB04KT P6SM SCT040 BKN100
     FM190800 VRB04KT 3SM BR BKN010=



000
FTUS45 KPUB 181720
TAFCOS
TAF
KCOS 181720Z 1818/1918 10005KT P6SM BKN010
     FM181900 15007KT P6SM SCT020 BKN100
     FM190000 10006KT P6SM VCSH BKN020 OVC060
     FM190600 02005KT 3SM BR BKN010
     FM191000 01005KT P6SM SCT010
     FM191500 15005KT P6SM FEW020 SCT070=



000
FTUS45 KPUB 181720
TAFPUB
TAF
KPUB 181720Z 1818/1918 27005KT P6SM FEW070
     FM182000 10006KT P6SM FEW070 SCT120
     FM190300 VRB05KT P6SM FEW120
     FM191000 VRB04KT 3SM BR SCT010
     FM191600 30005KT P6SM FEW150=



000
FTUS45 KPUB 181720
TAFCOS
TAF
KCOS 181720Z 1818/1918 10005KT P6SM BKN010
     FM181900 15007KT P6SM SCT020 BKN100
     FM190000 10006KT P6SM VCSH BKN020 OVC060
     FM190600 02005KT 3SM BR BKN010
     FM191000 01005KT P6SM SCT010
     FM191500 15005KT P6SM FEW020 SCT070=



000
FTUS45 KPUB 181720
TAFALS
TAF
KALS 181720Z 1818/1918 25005KT P6SM OVC021
     FM182000 21005KT P6SM FEW070 SCT150
     FM190100 VRB04KT P6SM SCT040 BKN100
     FM190800 VRB04KT 3SM BR BKN010=



000
FTUS45 KPUB 181459 AAB
TAFPUB
TAF AMD
KPUB 181459Z 1815/1912 25006KT P6SM SCT100
     FM181600 VRB06KT P6SM SCT030 BKN100
     FM182000 12006KT P6SM SCT040 BKN100
     FM190300 VRB06KT P6SM BKN030
     FM191000 30006KT P6SM SCT080=



000
FTUS45 KPUB 181459 AAB
TAFPUB
TAF AMD
KPUB 181459Z 1815/1912 25006KT P6SM SCT100
     FM181600 VRB06KT P6SM SCT030 BKN100
     FM182000 12006KT P6SM SCT040 BKN100
     FM190300 VRB06KT P6SM BKN030
     FM191000 30006KT P6SM SCT080=



000
FTUS45 KPUB 181458 AAA
TAFCOS
TAF AMD
KCOS 181458Z 1815/1912 01005KT P6SM FEW010 BKN020
     FM181600 01006KT P6SM SCT020 SCT080
     FM181800 16007KT P6SM SCT020 BKN080
     FM190100 13006KT P6SM VCSH SCT010 BKN025
     FM190600 VRB05KT 3SM BR BKN010
     FM191000 03005KT P6SM SCT010=



000
FTUS45 KPUB 181458 AAA
TAFCOS
TAF AMD
KCOS 181458Z 1815/1912 01005KT P6SM FEW010 BKN020
     FM181600 01006KT P6SM SCT020 SCT080
     FM181800 16007KT P6SM SCT020 BKN080
     FM190100 13006KT P6SM VCSH SCT010 BKN025
     FM190600 VRB05KT 3SM BR BKN010
     FM191000 03005KT P6SM SCT010=



000
FTUS45 KPUB 181128
TAFCOS
TAF
KCOS 181128Z 1812/1912 35006KT 5SM BR SCT010 BKN025
     FM181500 VRB05KT P6SM SCT020 BKN060
     FM181800 16007KT P6SM SCT020 BKN080
     FM190100 13006KT P6SM VCSH SCT010 BKN025
     FM190600 VRB05KT 3SM BR BKN010
     FM191000 03005KT P6SM SCT010=



000
FTUS45 KPUB 181128
TAFALS
TAF
KALS 181128Z 1812/1912 VRB04KT P6SM OVC012
     FM181600 VRB05KT P6SM SCT020 BKN100
     FM182000 18006KT P6SM SCT050 SCT200
     FM190100 VRB06KT P6SM BKN050=



000
FTUS45 KPUB 181128
TAFPUB
TAF
KPUB 181128Z 1812/1912 25006KT 5SM BR SCT100
     FM181600 VRB06KT P6SM SCT030 BKN100
     FM182000 12006KT P6SM SCT040 BKN100
     FM190300 VRB06KT P6SM BKN030
     FM191000 30006KT P6SM SCT080=



000
FTUS45 KPUB 181128
TAFPUB
TAF
KPUB 181128Z 1812/1912 25006KT 5SM BR SCT100
     FM181600 VRB06KT P6SM SCT030 BKN100
     FM182000 12006KT P6SM SCT040 BKN100
     FM190300 VRB06KT P6SM BKN030
     FM191000 30006KT P6SM SCT080=



000
FTUS45 KPUB 181128
TAFALS
TAF
KALS 181128Z 1812/1912 VRB04KT P6SM OVC012
     FM181600 VRB05KT P6SM SCT020 BKN100
     FM182000 18006KT P6SM SCT050 SCT200
     FM190100 VRB06KT P6SM BKN050=



000
FTUS45 KPUB 181128
TAFCOS
TAF
KCOS 181128Z 1812/1912 35006KT 5SM BR SCT010 BKN025
     FM181500 VRB05KT P6SM SCT020 BKN060
     FM181800 16007KT P6SM SCT020 BKN080
     FM190100 13006KT P6SM VCSH SCT010 BKN025
     FM190600 VRB05KT 3SM BR BKN010
     FM191000 03005KT P6SM SCT010=



000
FTUS45 KPUB 180857 AAB
TAFCOS
TAF AMD
KCOS 180857Z 1809/1906 04006KT 1/4SM FZFG OVC002
     FM181000 VRB06KT 2SM BR SCT002 BKN010
      TEMPO 1810/1813 1/2SM FZFG BKN002
     FM181500 VRB06KT P6SM SCT010 BKN050
     FM181800 16008KT P6SM SCT030 BKN090
     FM190100 13006KT P6SM BKN030=



000
FTUS45 KPUB 180857 AAB
TAFCOS
TAF AMD
KCOS 180857Z 1809/1906 04006KT 1/4SM FZFG OVC002
     FM181000 VRB06KT 2SM BR SCT002 BKN010
      TEMPO 1810/1813 1/2SM FZFG BKN002
     FM181500 VRB06KT P6SM SCT010 BKN050
     FM181800 16008KT P6SM SCT030 BKN090
     FM190100 13006KT P6SM BKN030=



000
FTUS45 KPUB 180857 AAB
TAFCOS
TAF AMD
KCOS 180857Z 1809/1906 04006KT 1/4SM FZFG OVC002
     FM181000 VRB06KT 2SM BR SCT002 BKN010
      TEMPO 1810/1813 1/2SM FZFG BKN002
     FM181500 VRB06KT P6SM SCT010 BKN050
     FM181800 16008KT P6SM SCT030 BKN090
     FM190100 13006KT P6SM BKN030=



000
FTUS45 KPUB 180857 AAB
TAFCOS
TAF AMD
KCOS 180857Z 1809/1906 04006KT 1/4SM FZFG OVC002
     FM181000 VRB06KT 2SM BR SCT002 BKN010
      TEMPO 1810/1813 1/2SM FZFG BKN002
     FM181500 VRB06KT P6SM SCT010 BKN050
     FM181800 16008KT P6SM SCT030 BKN090
     FM190100 13006KT P6SM BKN030=



000
FTUS45 KPUB 180803 AAA
TAFCOS
TAF AMD
KCOS 180803Z 1808/1906 35006KT 4SM -SN BR OVC002
     FM181000 VRB06KT 3SM BR SCT002 BKN018
     FM181800 16008KT P6SM SCT030 BKN090
     FM190100 13006KT P6SM BKN030=



000
FTUS45 KPUB 180803 AAA
TAFCOS
TAF AMD
KCOS 180803Z 1808/1906 35006KT 4SM -SN BR OVC002
     FM181000 VRB06KT 3SM BR SCT002 BKN018
     FM181800 16008KT P6SM SCT030 BKN090
     FM190100 13006KT P6SM BKN030=



000
FTUS45 KPUB 180803 AAA
TAFCOS
TAF AMD
KCOS 180803Z 1808/1906 35006KT 4SM -SN BR OVC002
     FM181000 VRB06KT 3SM BR SCT002 BKN018
     FM181800 16008KT P6SM SCT030 BKN090
     FM190100 13006KT P6SM BKN030=



000
FTUS45 KPUB 180803 AAA
TAFCOS
TAF AMD
KCOS 180803Z 1808/1906 35006KT 4SM -SN BR OVC002
     FM181000 VRB06KT 3SM BR SCT002 BKN018
     FM181800 16008KT P6SM SCT030 BKN090
     FM190100 13006KT P6SM BKN030=



000
FTUS45 KPUB 180640 AAA
TAFPUB
TAF AMD
KPUB 180640Z 1807/1906 VRB05KT P6SM VCSH SCT020 OVC040
     FM181000 VRB04KT 3SM BR BKN020
     FM181600 VRB06KT P6SM SCT030 BKN100
     FM190300 VRB06KT P6SM BKN030=



000
FTUS45 KPUB 180640 AAA
TAFPUB
TAF AMD
KPUB 180640Z 1807/1906 VRB05KT P6SM VCSH SCT020 OVC040
     FM181000 VRB04KT 3SM BR BKN020
     FM181600 VRB06KT P6SM SCT030 BKN100
     FM190300 VRB06KT P6SM BKN030=



000
FTUS45 KPUB 180520
TAFCOS
TAF
KCOS 180520Z 1806/1906 35006KT 6SM -SHSN SCT030 BKN060
      TEMPO 1806/1808 3SM -SHSN BKN030
     FM181000 VRB06KT 3SM BR BKN020
     FM181800 16008KT P6SM SCT030 BKN090
     FM190100 13006KT P6SM BKN030=



000
FTUS45 KPUB 180520
TAFCOS
TAF
KCOS 180520Z 1806/1906 35006KT 6SM -SHSN SCT030 BKN060
      TEMPO 1806/1808 3SM -SHSN BKN030
     FM181000 VRB06KT 3SM BR BKN020
     FM181800 16008KT P6SM SCT030 BKN090
     FM190100 13006KT P6SM BKN030=



000
FTUS45 KPUB 180520
TAFPUB
TAF
KPUB 180520Z 1806/1906 VRB05KT 6SM -SHSN SCT020 OVC040
      TEMPO 1806/1808 3SM -SHSN BR BKN020
     FM181000 VRB04KT 3SM BR BKN020
     FM181600 VRB06KT P6SM SCT030 BKN100
     FM190300 VRB06KT P6SM BKN030=



000
FTUS45 KPUB 180520
TAFALS
TAF
KALS 180520Z 1806/1906 VRB05KT P6SM OVC015
     FM180800 VRB04KT 2SM BR BKN010
     FM181400 VRB05KT P6SM SCT020 BKN100
     FM182000 18006KT P6SM SCT100 SCT200=



000
FTUS45 KPUB 180520
TAFALS
TAF
KALS 180520Z 1806/1906 VRB05KT P6SM OVC015
     FM180800 VRB04KT 2SM BR BKN010
     FM181400 VRB05KT P6SM SCT020 BKN100
     FM182000 18006KT P6SM SCT100 SCT200=



000
FTUS45 KPUB 180520
TAFPUB
TAF
KPUB 180520Z 1806/1906 VRB05KT 6SM -SHSN SCT020 OVC040
      TEMPO 1806/1808 3SM -SHSN BR BKN020
     FM181000 VRB04KT 3SM BR BKN020
     FM181600 VRB06KT P6SM SCT030 BKN100
     FM190300 VRB06KT P6SM BKN030=



000
FTUS45 KPUB 180328 AAB
TAFPUB
TAF AMD
KPUB 180328Z 1803/1824 VRB06KT P6SM VCSH SCT040 BKN090
      TEMPO 1803/1805 3SM -SHSN BKN020 OVC040
     FM180600 VRB05KT P6SM SCT020 BKN040
     FM181900 10008KT P6SM SCT050 SCT100=



000
FTUS45 KPUB 180328 AAB
TAFPUB
TAF AMD
KPUB 180328Z 1803/1824 VRB06KT P6SM VCSH SCT040 BKN090
      TEMPO 1803/1805 3SM -SHSN BKN020 OVC040
     FM180600 VRB05KT P6SM SCT020 BKN040
     FM181900 10008KT P6SM SCT050 SCT100=



000
FTUS45 KPUB 180259 AAA
TAFCOS
TAF AMD
KCOS 180259Z 1803/1824 VRB06KT P6SM VCSH SCT020 OVC040
      TEMPO 1803/1805 5SM -SHSN SCT010 OVC020
     FM180600 35006KT P6SM SCT030 BKN060
     FM181600 14008KT P6SM BKN030
     FM182000 16010KT P6SM SCT030 SCT090=



000
FTUS45 KPUB 180259 AAA
TAFCOS
TAF AMD
KCOS 180259Z 1803/1824 VRB06KT P6SM VCSH SCT020 OVC040
      TEMPO 1803/1805 5SM -SHSN SCT010 OVC020
     FM180600 35006KT P6SM SCT030 BKN060
     FM181600 14008KT P6SM BKN030
     FM182000 16010KT P6SM SCT030 SCT090=



000
FTUS45 KPUB 180211 AAB
TAFALS
TAF AMD
KALS 180211Z 1802/1824 VRB05KT P6SM VCSH SCT015 BKN040
      TEMPO 1802/1804 2SM -SHSN BR BKN015
     FM180900 VRB04KT 3SM BR BKN010
     FM181400 VRB04KT P6SM FEW020 SCT090
     FM182000 20008KT P6SM SCT100 SCT200=



000
FTUS45 KPUB 180102 AAA
TAFALS
TAF AMD
KALS 180102Z 1801/1824 VRB05KT P6SM VCSH SCT015 BKN040
     FM180900 VRB04KT 3SM BR BKN010
     FM181400 VRB04KT P6SM FEW020 SCT090
     FM182000 20008KT P6SM SCT100 SCT200=



000
FTUS45 KPUB 180102 AAA
TAFALS
TAF AMD
KALS 180102Z 1801/1824 VRB05KT P6SM VCSH SCT015 BKN040
     FM180900 VRB04KT 3SM BR BKN010
     FM181400 VRB04KT P6SM FEW020 SCT090
     FM182000 20008KT P6SM SCT100 SCT200=



000
FTUS45 KPUB 172340
TAFPUB
TAF
KPUB 172340Z 1800/1824 VRB06KT P6SM VCSH SCT050 BKN100
     FM180500 VRB05KT P6SM SCT040 BKN070
     FM181900 10008KT P6SM SCT050 SCT100=



000
FTUS45 KPUB 172340
TAFCOS
TAF
KCOS 172340Z 1800/1824 VRB06KT P6SM VCSH SCT020 OVC040
      TEMPO 1801/1803 5SM -SHSN SCT010 OVC020
     FM180500 35006KT P6SM SCT030 BKN060
     FM181600 14008KT P6SM BKN030
     FM182000 16010KT P6SM SCT030 SCT090=



000
FTUS45 KPUB 172340
TAFCOS
TAF
KCOS 172340Z 1800/1824 VRB06KT P6SM VCSH SCT020 OVC040
      TEMPO 1801/1803 5SM -SHSN SCT010 OVC020
     FM180500 35006KT P6SM SCT030 BKN060
     FM181600 14008KT P6SM BKN030
     FM182000 16010KT P6SM SCT030 SCT090=



000
FTUS45 KPUB 172340
TAFALS
TAF
KALS 172340Z 1800/1824 VRB05KT P6SM VCSH SCT010 BKN020
      TEMPO 1800/1802 5SM -SHSN BKN010
     FM180900 VRB04KT 3SM BR BKN010
     FM181400 VRB04KT P6SM FEW020 SCT090
     FM182000 20008KT P6SM SCT100 SCT200=



000
FTUS45 KPUB 172340
TAFALS
TAF
KALS 172340Z 1800/1824 VRB05KT P6SM VCSH SCT010 BKN020
      TEMPO 1800/1802 5SM -SHSN BKN010
     FM180900 VRB04KT 3SM BR BKN010
     FM181400 VRB04KT P6SM FEW020 SCT090
     FM182000 20008KT P6SM SCT100 SCT200=



000
FTUS45 KPUB 172340
TAFPUB
TAF
KPUB 172340Z 1800/1824 VRB06KT P6SM VCSH SCT050 BKN100
     FM180500 VRB05KT P6SM SCT040 BKN070
     FM181900 10008KT P6SM SCT050 SCT100=



000
FTUS45 KPUB 171839 AAA
TAFALS
TAF AMD
KALS 171839Z 1719/1818 VRB05KT 1 1/2SM -SN BKN025 OVC035
     FM172100 VRB05KT 3SM -SN BR OVC010
     FM180200 VRB05KT P6SM VCSH SCT020 BKN040
     FM180700 VRB04KT 3SM BR BKN010
     FM181600 VRB04KT P6SM FEW020 SCT100=



000
FTUS45 KPUB 171839 AAA
TAFALS
TAF AMD
KALS 171839Z 1719/1818 VRB05KT 1 1/2SM -SN BKN025 OVC035
     FM172100 VRB05KT 3SM -SN BR OVC010
     FM180200 VRB05KT P6SM VCSH SCT020 BKN040
     FM180700 VRB04KT 3SM BR BKN010
     FM181600 VRB04KT P6SM FEW020 SCT100=



000
FTUS45 KPUB 171732
TAFPUB
TAF
KPUB 171732Z 1718/1818 VRB05KT P6SM OVC090
     FM172000 10005KT P6SM SCT050 OVC080
     FM172200 10005KT P6SM VCSH BKN040
      TEMPO 1723/1802 4SM -SN BR OVC030
     FM180500 VRB05KT P6SM VCSH SCT030 BKN060
     FM180900 VRB03KT P6SM SCT050 BKN100=



000
FTUS45 KPUB 171732
TAFCOS
TAF
KCOS 171732Z 1718/1818 36005KT P6SM SCT060 BKN080
     FM172100 12006KT P6SM VCSH BKN040 OVC060
     FM172300 09005KT 3SM -SN BR SCT010 BKN020
     FM180500 02005KT P6SM VCSH SCT020 BKN040
     FM180900 02005KT P6SM SCT050 BKN080
     FM181600 14005KT P6SM SCT030 BKN080=



000
FTUS45 KPUB 171732
TAFALS
TAF
KALS 171732Z 1718/1818 36005KT P6SM BKN045 OVC060
     FM172000 VRB05KT P6SM VCSH BKN020
     FM172100 VRB05KT 3SM -SN BR OVC010
     FM180200 VRB05KT P6SM VCSH SCT020 BKN040
     FM180700 VRB04KT 3SM BR BKN010
     FM181600 VRB04KT P6SM FEW020 SCT100=



000
FTUS45 KPUB 171732
TAFPUB
TAF
KPUB 171732Z 1718/1818 VRB05KT P6SM OVC090
     FM172000 10005KT P6SM SCT050 OVC080
     FM172200 10005KT P6SM VCSH BKN040
      TEMPO 1723/1802 4SM -SN BR OVC030
     FM180500 VRB05KT P6SM VCSH SCT030 BKN060
     FM180900 VRB03KT P6SM SCT050 BKN100=



000
FTUS45 KPUB 171732
TAFALS
TAF
KALS 171732Z 1718/1818 36005KT P6SM BKN045 OVC060
     FM172000 VRB05KT P6SM VCSH BKN020
     FM172100 VRB05KT 3SM -SN BR OVC010
     FM180200 VRB05KT P6SM VCSH SCT020 BKN040
     FM180700 VRB04KT 3SM BR BKN010
     FM181600 VRB04KT P6SM FEW020 SCT100=



000
FTUS45 KPUB 171732
TAFCOS
TAF
KCOS 171732Z 1718/1818 36005KT P6SM SCT060 BKN080
     FM172100 12006KT P6SM VCSH BKN040 OVC060
     FM172300 09005KT 3SM -SN BR SCT010 BKN020
     FM180500 02005KT P6SM VCSH SCT020 BKN040
     FM180900 02005KT P6SM SCT050 BKN080
     FM181600 14005KT P6SM SCT030 BKN080=



000
FTUS45 KPUB 171143
TAFCOS
TAF
KCOS 171143Z 1712/1812 01007KT P6SM SCT120 BKN200
     FM171600 07007KT P6SM SCT060 BKN100
     FM171800 14006KT P6SM VCSH SCT040 BKN060
     FM172100 17008KT 5SM -RASN BR SCT020 BKN040
     FM172300 18008KT 3SM -SN BR SCT010 BKN020
     FM180500 04006KT P6SM VCSH SCT020 BKN040
     FM180800 02005KT P6SM SCT040 BKN080=



000
FTUS45 KPUB 171143
TAFALS
TAF
KALS 171143Z 1712/1812 VRB05KT P6SM SCT070 OVC100
     FM171600 VRB06KT P6SM VCSH BKN060
     FM171800 VRB06KT 5SM -RASN BR BKN030
     FM172000 20005KT 3SM -SN BR BKN020
     FM180200 VRB05KT P6SM VCSH SCT020 BKN040
     FM180400 VRB05KT P6SM SCT040 BKN080=



000
FTUS45 KPUB 171143
TAFPUB
TAF
KPUB 171143Z 1712/1812 VRB06KT P6SM SCT120 BKN200
     FM172000 06006KT P6SM SCT040 BKN080
     FM172200 09006KT 5SM -RASN BKN040
     FM180000 12007KT 4SM -SN BR BKN030
     FM180500 VRB06KT P6SM VCSH SCT030 BKN050
     FM180900 35004KT P6SM SCT050 BKN100=



000
FTUS45 KPUB 171143
TAFALS
TAF
KALS 171143Z 1712/1812 VRB05KT P6SM SCT070 OVC100
     FM171600 VRB06KT P6SM VCSH BKN060
     FM171800 VRB06KT 5SM -RASN BR BKN030
     FM172000 20005KT 3SM -SN BR BKN020
     FM180200 VRB05KT P6SM VCSH SCT020 BKN040
     FM180400 VRB05KT P6SM SCT040 BKN080=



000
FTUS45 KPUB 171143
TAFPUB
TAF
KPUB 171143Z 1712/1812 VRB06KT P6SM SCT120 BKN200
     FM172000 06006KT P6SM SCT040 BKN080
     FM172200 09006KT 5SM -RASN BKN040
     FM180000 12007KT 4SM -SN BR BKN030
     FM180500 VRB06KT P6SM VCSH SCT030 BKN050
     FM180900 35004KT P6SM SCT050 BKN100=



000
FTUS45 KPUB 171143
TAFCOS
TAF
KCOS 171143Z 1712/1812 01007KT P6SM SCT120 BKN200
     FM171600 07007KT P6SM SCT060 BKN100
     FM171800 14006KT P6SM VCSH SCT040 BKN060
     FM172100 17008KT 5SM -RASN BR SCT020 BKN040
     FM172300 18008KT 3SM -SN BR SCT010 BKN020
     FM180500 04006KT P6SM VCSH SCT020 BKN040
     FM180800 02005KT P6SM SCT040 BKN080=



000
FTUS45 KPUB 170525
TAFALS
TAF
KALS 170525Z 1706/1806 VRB05KT P6SM SCT070 OVC100
     FM171600 VRB06KT P6SM VCSH BKN060
     FM171900 VRB06KT 5SM -RASN BR BKN030
     FM180100 VRB05KT P6SM BKN040=



000
FTUS45 KPUB 170525
TAFPUB
TAF
KPUB 170525Z 1706/1806 VRB06KT P6SM SCT120 BKN200
     FM172000 06006KT P6SM BKN120
     FM172300 04006KT 5SM -RASN BKN040
     FM180100 04006KT 3SM -SN BR BKN020=



000
FTUS45 KPUB 170525
TAFCOS
TAF
KCOS 170525Z 1706/1806 03007KT P6SM SCT120 BKN200
     FM171500 05007KT P6SM BKN100
     FM171800 14006KT P6SM VCSH SCT060 BKN080
     FM172100 19008KT 5SM -RASN BR BKN020=



000
FTUS45 KPUB 170525
TAFPUB
TAF
KPUB 170525Z 1706/1806 VRB06KT P6SM SCT120 BKN200
     FM172000 06006KT P6SM BKN120
     FM172300 04006KT 5SM -RASN BKN040
     FM180100 04006KT 3SM -SN BR BKN020=



000
FTUS45 KPUB 170525
TAFALS
TAF
KALS 170525Z 1706/1806 VRB05KT P6SM SCT070 OVC100
     FM171600 VRB06KT P6SM VCSH BKN060
     FM171900 VRB06KT 5SM -RASN BR BKN030
     FM180100 VRB05KT P6SM BKN040=



000
FTUS45 KPUB 170525
TAFCOS
TAF
KCOS 170525Z 1706/1806 03007KT P6SM SCT120 BKN200
     FM171500 05007KT P6SM BKN100
     FM171800 14006KT P6SM VCSH SCT060 BKN080
     FM172100 19008KT 5SM -RASN BR BKN020=



    US Dept of Commerce
    National Oceanic and Atmospheric Administration
    National Weather Service
    1325 East West Highway
    Silver Spring, MD 20910
    Page Author: NWS Internet Services Team
Disclaimer
Information Quality
Credits
Glossary
Privacy Policy
Freedom of Information Act (FOIA)
About Us
Career Opportunities